createdAt,value
2018-09-17T00:02:15.106Z,16.80
2018-09-17T00:04:44.148Z,16.60
2018-09-17T00:07:12.420Z,16.60
2018-09-17T00:09:40.684Z,16.60
2018-09-17T00:12:08.917Z,16.60
2018-09-17T00:14:37.985Z,16.60
2018-09-17T00:17:06.202Z,16.60
2018-09-17T00:19:34.611Z,16.70
2018-09-17T00:22:03.631Z,16.60
2018-09-17T00:24:31.888Z,16.50
2018-09-17T00:27:02.641Z,16.50
2018-09-17T00:29:30.932Z,16.50
2018-09-17T00:31:59.173Z,16.50
2018-09-17T00:34:27.459Z,16.40
2018-09-17T00:36:55.697Z,16.50
2018-09-17T00:39:24.286Z,16.50
2018-09-17T00:41:52.548Z,16.50
2018-09-17T00:44:20.793Z,16.40
2018-09-17T00:46:49.819Z,16.50
2018-09-17T00:49:18.057Z,16.40
2018-09-17T00:51:46.341Z,16.30
2018-09-17T00:54:15.427Z,16.10
2018-09-17T00:56:43.642Z,16.00
2018-09-17T00:59:11.894Z,16.00
2018-09-17T01:01:40.147Z,16.00
2018-09-17T01:04:08.442Z,16.00
2018-09-17T01:06:37.516Z,16.00
2018-09-17T01:09:05.750Z,16.00
2018-09-17T01:11:34.015Z,16.00
2018-09-17T01:14:02.259Z,16.00
2018-09-17T01:16:31.265Z,16.20
2018-09-17T01:18:59.514Z,16.20
2018-09-17T01:21:28.539Z,16.20
2018-09-17T01:23:56.814Z,16.20
2018-09-17T01:26:25.061Z,16.10
2018-09-17T01:28:55.092Z,16.20
2018-09-17T01:31:23.340Z,16.10
2018-09-17T01:33:52.729Z,16.00
2018-09-17T01:36:21.018Z,15.90
2018-09-17T01:38:49.270Z,15.80
2018-09-17T01:41:17.548Z,15.80
2018-09-17T01:43:45.824Z,15.80
2018-09-17T01:46:14.120Z,15.80
2018-09-17T01:48:42.319Z,15.80
2018-09-17T01:51:10.594Z,15.90
2018-09-17T01:53:38.846Z,15.90
2018-09-17T01:56:07.874Z,15.80
2018-09-17T01:58:36.150Z,15.80
2018-09-17T02:01:04.398Z,15.80
2018-09-17T02:03:33.434Z,15.70
2018-09-17T02:06:01.669Z,15.70
2018-09-17T02:08:30.734Z,15.80
2018-09-17T02:10:58.977Z,15.80
2018-09-17T02:13:27.238Z,15.80
2018-09-17T02:15:55.502Z,15.90
2018-09-17T02:18:23.762Z,15.90
2018-09-17T02:20:52.794Z,15.70
2018-09-17T02:23:21.038Z,15.70
2018-09-17T02:25:49.297Z,15.60
2018-09-17T02:28:18.309Z,15.50
2018-09-17T02:30:46.616Z,15.40
2018-09-17T02:33:14.883Z,15.50
2018-09-17T02:35:43.135Z,15.50
2018-09-17T02:38:11.393Z,15.40
2018-09-17T02:40:40.397Z,15.50
2018-09-17T02:43:08.670Z,15.50
2018-09-17T02:45:37.679Z,15.60
2018-09-17T02:48:05.966Z,15.60
2018-09-17T02:50:34.266Z,15.60
2018-09-17T02:53:02.517Z,15.40
2018-09-17T02:55:30.780Z,15.30
2018-09-17T02:57:59.044Z,15.40
2018-09-17T03:00:27.304Z,15.50
2018-09-17T03:02:56.327Z,15.60
2018-09-17T03:05:24.603Z,15.60
2018-09-17T03:07:52.854Z,15.60
2018-09-17T03:10:21.131Z,15.70
2018-09-17T03:12:49.405Z,15.70
2018-09-17T03:15:43.018Z,15.70
2018-09-17T03:18:11.278Z,15.70
2018-09-17T03:20:39.524Z,15.50
2018-09-17T03:23:07.769Z,15.50
2018-09-17T03:25:36.035Z,15.50
2018-09-17T03:28:04.314Z,15.60
2018-09-17T03:30:32.589Z,15.60
2018-09-17T03:33:00.834Z,15.60
2018-09-17T03:35:29.104Z,15.60
2018-09-17T03:37:57.399Z,15.60
2018-09-17T03:40:25.651Z,15.50
2018-09-17T03:42:54.773Z,15.40
2018-09-17T03:45:23.031Z,15.30
2018-09-17T03:47:51.303Z,15.30
2018-09-17T03:50:19.546Z,15.10
2018-09-17T03:52:47.838Z,15.00
2018-09-17T03:55:16.106Z,14.90
2018-09-17T03:57:44.382Z,14.70
2018-09-17T04:00:12.635Z,14.50
2018-09-17T04:02:41.679Z,14.30
2018-09-17T04:05:09.938Z,14.30
2018-09-17T04:07:38.202Z,14.40
2018-09-17T04:10:06.450Z,14.50
2018-09-17T04:12:35.483Z,14.50
2018-09-17T04:15:03.742Z,14.60
2018-09-17T04:17:32.023Z,14.50
2018-09-17T04:20:00.268Z,14.30
2018-09-17T04:22:29.303Z,14.40
2018-09-17T04:24:57.561Z,14.40
2018-09-17T04:27:26.036Z,14.50
2018-09-17T04:29:54.282Z,14.60
2018-09-17T04:32:23.311Z,14.60
2018-09-17T04:34:51.763Z,14.60
2018-09-17T04:37:20.836Z,14.40
2018-09-17T04:39:49.092Z,14.40
2018-09-17T04:42:17.398Z,14.40
2018-09-17T04:44:46.408Z,14.50
2018-09-17T04:47:15.437Z,14.50
2018-09-17T04:49:43.692Z,14.40
2018-09-17T04:52:12.032Z,14.50
2018-09-17T04:54:40.262Z,14.60
2018-09-17T04:57:08.571Z,14.50
2018-09-17T04:59:37.519Z,14.40
2018-09-17T05:02:05.790Z,14.40
2018-09-17T05:04:34.061Z,14.40
2018-09-17T05:07:02.327Z,14.40
2018-09-17T05:09:30.583Z,14.40
2018-09-17T05:11:59.662Z,14.50
2018-09-17T05:14:28.055Z,14.50
2018-09-17T05:16:56.286Z,14.50
2018-09-17T05:19:24.546Z,14.40
2018-09-17T05:21:52.872Z,14.40
2018-09-17T05:24:21.081Z,14.30
2018-09-17T05:26:49.402Z,14.30
2018-09-17T05:29:17.617Z,14.30
2018-09-17T05:31:45.893Z,14.20
2018-09-17T05:34:14.910Z,14.40
2018-09-17T05:36:43.159Z,14.40
2018-09-17T05:39:11.422Z,14.50
2018-09-17T05:41:40.439Z,14.80
2018-09-17T05:44:08.714Z,14.70
2018-09-17T05:46:37.042Z,14.90
2018-09-17T05:49:05.296Z,14.90
2018-09-17T05:51:33.538Z,15.00
2018-09-17T05:54:01.784Z,14.90
2018-09-17T05:56:30.818Z,15.00
2018-09-17T05:58:59.087Z,14.90
2018-09-17T06:01:27.338Z,15.00
2018-09-17T06:03:56.375Z,15.10
2018-09-17T06:06:24.646Z,15.10
2018-09-17T06:08:52.898Z,15.20
2018-09-17T06:11:21.169Z,15.20
2018-09-17T06:13:49.447Z,15.30
2018-09-17T06:16:17.702Z,15.40
2018-09-17T06:18:46.740Z,15.80
2018-09-17T06:21:15.004Z,15.80
2018-09-17T06:23:43.291Z,16.20
2018-09-17T06:26:11.536Z,16.50
2018-09-17T06:28:39.809Z,16.70
2018-09-17T06:31:08.814Z,16.80
2018-09-17T06:33:37.064Z,16.80
2018-09-17T06:36:06.115Z,16.90
2018-09-17T06:38:35.115Z,16.90
2018-09-17T06:41:03.382Z,16.90
2018-09-17T06:43:31.626Z,16.90
2018-09-17T06:45:59.913Z,17.10
2018-09-17T06:48:28.203Z,17.20
2018-09-17T06:50:56.445Z,17.30
2018-09-17T06:53:24.722Z,17.40
2018-09-17T06:55:52.985Z,17.60
2018-09-17T06:58:21.321Z,17.70
2018-09-17T07:00:49.557Z,17.90
2018-09-17T07:03:17.810Z,18.00
2018-09-17T07:05:46.097Z,18.20
2018-09-17T07:08:14.343Z,18.30
2018-09-17T07:10:43.367Z,18.50
2018-09-17T07:13:11.615Z,18.40
2018-09-17T07:15:40.646Z,18.80
2018-09-17T07:18:08.954Z,18.80
2018-09-17T07:20:37.180Z,19.00
2018-09-17T07:23:05.431Z,19.20
2018-09-17T07:25:34.459Z,19.70
2018-09-17T07:28:02.723Z,19.70
2018-09-17T07:30:30.989Z,19.90
2018-09-17T07:32:59.250Z,20.00
2018-09-17T07:35:28.290Z,20.20
2018-09-17T07:37:56.561Z,20.20
2018-09-17T07:40:24.835Z,20.50
2018-09-17T07:42:53.082Z,20.70
2018-09-17T07:45:21.340Z,20.80
2018-09-17T07:47:50.388Z,21.00
2018-09-17T07:50:18.628Z,21.00
2018-09-17T07:52:46.895Z,21.10
2018-09-17T07:55:15.211Z,21.20
2018-09-17T07:57:43.458Z,21.20
2018-09-17T08:00:11.719Z,21.40
2018-09-17T08:02:40.247Z,21.60
2018-09-17T08:05:08.491Z,21.80
2018-09-17T08:07:36.751Z,22.00
2018-09-17T08:10:05.837Z,22.10
2018-09-17T08:12:34.850Z,22.30
2018-09-17T08:15:03.097Z,22.20
2018-09-17T08:17:32.139Z,22.70
2018-09-17T08:20:00.413Z,22.70
2018-09-17T08:22:28.666Z,22.50
2018-09-17T08:24:56.953Z,22.40
2018-09-17T08:27:25.194Z,22.60
2018-09-17T08:29:54.234Z,22.60
2018-09-17T08:32:22.496Z,22.60
2018-09-17T08:34:50.744Z,22.60
2018-09-17T08:37:19.782Z,22.90
2018-09-17T08:39:48.042Z,22.90
2018-09-17T08:42:16.545Z,23.10
2018-09-17T08:44:44.799Z,23.30
2018-09-17T08:47:13.065Z,23.30
2018-09-17T08:49:41.341Z,23.20
2018-09-17T08:52:09.601Z,23.40
2018-09-17T08:54:38.612Z,23.50
2018-09-17T08:57:06.873Z,23.50
2018-09-17T08:59:35.326Z,23.40
2018-09-17T09:02:03.561Z,23.40
2018-09-17T09:04:32.136Z,23.60
2018-09-17T09:07:00.399Z,23.70
2018-09-17T09:09:28.653Z,23.90
2018-09-17T09:11:57.699Z,24.20
2018-09-17T09:14:25.948Z,24.20
2018-09-17T09:16:54.211Z,24.40
2018-09-17T09:19:22.474Z,24.70
2018-09-17T09:21:50.752Z,24.70
2018-09-17T09:24:19.019Z,24.70
2018-09-17T09:26:49.155Z,24.70
2018-09-17T09:29:17.429Z,24.70
2018-09-17T09:31:45.839Z,24.80
2018-09-17T09:34:14.095Z,24.70
2018-09-17T09:36:42.351Z,24.70
2018-09-17T09:39:11.473Z,24.80
2018-09-17T09:41:39.726Z,24.80
2018-09-17T09:44:08.002Z,25.00
2018-09-17T09:46:36.274Z,25.30
2018-09-17T09:49:05.075Z,25.40
2018-09-17T09:51:33.332Z,25.40
2018-09-17T09:54:01.576Z,25.30
2018-09-17T09:56:29.942Z,25.40
2018-09-17T09:58:58.194Z,25.50
2018-09-17T10:01:26.461Z,25.80
2018-09-17T10:03:54.743Z,26.00
2018-09-17T10:06:22.996Z,26.10
2018-09-17T10:08:51.250Z,25.80
2018-09-17T10:11:25.193Z,26.00
2018-09-17T10:14:08.490Z,26.00
2018-09-17T10:16:36.941Z,26.00
2018-09-17T10:19:20.922Z,26.00
2018-09-17T10:21:49.934Z,26.20
2018-09-17T10:24:18.207Z,26.20
2018-09-17T10:26:46.466Z,26.30
2018-09-17T10:29:14.747Z,26.50
2018-09-17T10:31:42.997Z,26.70
2018-09-17T10:34:12.076Z,27.00
2018-09-17T10:36:40.289Z,27.00
2018-09-17T10:39:08.895Z,27.10
2018-09-17T10:41:37.131Z,27.00
2018-09-17T10:44:06.147Z,26.90
2018-09-17T10:46:35.251Z,26.90
2018-09-17T10:49:04.176Z,26.80
2018-09-17T10:51:32.452Z,27.00
2018-09-17T10:54:00.681Z,27.30
2018-09-17T10:56:29.063Z,27.60
2018-09-17T10:58:57.317Z,27.50
2018-09-17T11:01:25.560Z,27.50
2018-09-17T11:03:54.599Z,27.50
2018-09-17T11:06:22.880Z,27.50
2018-09-17T11:08:51.150Z,27.50
2018-09-17T11:11:19.416Z,27.60
2018-09-17T11:13:47.704Z,27.60
2018-09-17T11:16:15.939Z,27.60
2018-09-17T11:18:44.996Z,27.80
2018-09-17T11:21:13.239Z,27.80
2018-09-17T11:23:41.513Z,28.00
2018-09-17T11:26:09.773Z,28.00
2018-09-17T11:28:38.046Z,28.20
2018-09-17T11:31:06.299Z,28.00
2018-09-17T11:33:35.334Z,28.20
2018-09-17T11:36:03.602Z,28.20
2018-09-17T11:38:31.853Z,28.40
2018-09-17T11:41:00.112Z,28.70
2018-09-17T11:43:29.134Z,29.00
2018-09-17T11:45:57.448Z,29.00
2018-09-17T11:48:25.737Z,29.10
2018-09-17T11:50:53.955Z,29.00
2018-09-17T11:53:22.206Z,29.10
2018-09-17T11:55:51.237Z,29.50
2018-09-17T11:58:19.489Z,29.50
2018-09-17T12:00:48.826Z,29.90
2018-09-17T12:03:17.100Z,29.80
2018-09-17T12:05:45.334Z,29.70
2018-09-17T12:08:14.375Z,29.70
2018-09-17T12:10:42.665Z,29.70
2018-09-17T12:13:10.910Z,29.90
2018-09-17T12:15:39.175Z,30.00
2018-09-17T12:18:07.430Z,30.00
2018-09-17T12:20:36.446Z,30.00
2018-09-17T12:23:04.740Z,30.00
2018-09-17T12:25:32.986Z,29.80
2018-09-17T12:28:01.257Z,29.30
2018-09-17T12:30:29.503Z,29.20
2018-09-17T12:32:58.235Z,29.10
2018-09-17T12:35:26.478Z,29.10
2018-09-17T12:37:55.521Z,29.10
2018-09-17T12:40:23.894Z,29.10
2018-09-17T12:42:52.145Z,29.30
2018-09-17T12:45:20.389Z,29.50
2018-09-17T12:47:49.428Z,29.80
2018-09-17T12:50:18.602Z,29.80
2018-09-17T12:52:46.861Z,29.70
2018-09-17T12:55:16.185Z,29.90
2018-09-17T12:57:44.437Z,29.90
2018-09-17T13:00:13.458Z,30.40
2018-09-17T13:02:41.774Z,30.40
2018-09-17T13:05:10.008Z,30.50
2018-09-17T13:07:38.287Z,30.40
2018-09-17T13:10:06.565Z,30.40
2018-09-17T13:12:34.813Z,30.50
2018-09-17T13:15:03.827Z,30.70
2018-09-17T13:17:32.097Z,30.70
2018-09-17T13:20:00.339Z,30.70
2018-09-17T13:22:29.342Z,30.30
2018-09-17T13:24:57.734Z,30.30
2018-09-17T13:27:25.935Z,30.10
2018-09-17T13:29:54.211Z,30.30
2018-09-17T13:32:22.468Z,30.40
2018-09-17T13:34:51.000Z,30.50
2018-09-17T13:37:19.247Z,30.50
2018-09-17T13:39:47.542Z,30.50
2018-09-17T13:42:15.814Z,30.60
2018-09-17T13:44:44.197Z,29.90
2018-09-17T13:47:12.329Z,29.80
2018-09-17T13:49:40.622Z,29.90
2018-09-17T13:52:08.877Z,30.10
2018-09-17T13:54:37.137Z,30.40
2018-09-17T13:57:05.406Z,30.40
2018-09-17T13:59:34.065Z,30.30
2018-09-17T14:02:02.307Z,30.40
2018-09-17T14:04:30.630Z,30.50
2018-09-17T14:06:58.806Z,30.50
2018-09-17T14:09:27.842Z,30.60
2018-09-17T14:11:56.099Z,30.60
2018-09-17T14:14:24.426Z,30.70
2018-09-17T14:16:55.754Z,30.40
2018-09-17T14:19:24.032Z,30.40
2018-09-17T14:21:53.089Z,30.60
2018-09-17T14:24:21.340Z,30.50
2018-09-17T14:26:50.374Z,30.80
2018-09-17T14:29:18.636Z,30.80
2018-09-17T14:31:46.921Z,30.80
2018-09-17T14:34:15.169Z,30.60
2018-09-17T14:36:43.427Z,30.50
2018-09-17T14:39:11.950Z,30.20
2018-09-17T14:41:40.192Z,30.30
2018-09-17T14:44:09.240Z,30.10
2018-09-17T14:46:37.572Z,30.10
2018-09-17T14:49:06.603Z,30.20
2018-09-17T14:51:34.993Z,30.10
2018-09-17T14:54:03.256Z,30.40
2018-09-17T14:56:31.475Z,30.40
2018-09-17T14:59:00.527Z,30.10
2018-09-17T15:01:28.795Z,30.10
2018-09-17T15:03:57.082Z,30.00
2018-09-17T15:06:25.326Z,30.10
2018-09-17T15:08:53.586Z,30.00
2018-09-17T15:11:21.834Z,30.10
2018-09-17T15:13:50.136Z,30.10
2018-09-17T15:16:19.153Z,30.20
2018-09-17T15:18:47.393Z,30.20
2018-09-17T15:21:15.646Z,30.10
2018-09-17T15:23:43.990Z,29.90
2018-09-17T15:26:12.186Z,29.80
2018-09-17T15:28:40.459Z,29.70
2018-09-17T15:31:08.762Z,29.50
2018-09-17T15:33:36.956Z,29.60
2018-09-17T15:36:05.267Z,29.70
2018-09-17T15:38:33.538Z,29.70
2018-09-17T15:41:01.990Z,29.80
2018-09-17T15:43:30.073Z,29.70
2018-09-17T15:45:58.358Z,29.70
2018-09-17T15:48:26.613Z,29.70
2018-09-17T15:50:54.906Z,29.40
2018-09-17T15:53:23.166Z,29.20
2018-09-17T15:55:51.443Z,29.30
2018-09-17T15:58:19.804Z,29.30
2018-09-17T16:00:48.024Z,29.50
2018-09-17T16:03:16.280Z,29.60
2018-09-17T16:05:44.591Z,29.80
2018-09-17T16:08:12.860Z,29.80
2018-09-17T16:10:41.116Z,29.70
2018-09-17T16:13:12.714Z,29.80
2018-09-17T16:15:41.735Z,29.70
2018-09-17T16:18:10.010Z,29.70
2018-09-17T16:20:38.260Z,29.50
2018-09-17T16:23:07.296Z,29.30
2018-09-17T16:25:35.556Z,29.30
2018-09-17T16:28:03.847Z,29.30
2018-09-17T16:30:32.123Z,29.30
2018-09-17T16:33:00.773Z,29.40
2018-09-17T16:35:29.059Z,29.40
2018-09-17T16:37:57.315Z,29.10
2018-09-17T16:40:26.341Z,29.00
2018-09-17T16:42:54.637Z,29.00
2018-09-17T16:45:23.438Z,28.90
2018-09-17T16:47:51.710Z,28.90
2018-09-17T16:50:20.000Z,28.90
2018-09-17T16:52:48.310Z,28.90
2018-09-17T16:55:16.520Z,28.90
2018-09-17T16:57:44.831Z,29.00
2018-09-17T17:00:13.113Z,29.00
2018-09-17T17:02:42.129Z,28.90
2018-09-17T17:05:10.414Z,28.90
2018-09-17T17:07:39.399Z,28.80
2018-09-17T17:10:08.444Z,28.70
2018-09-17T17:12:36.678Z,28.70
2018-09-17T17:15:04.959Z,28.70
2018-09-17T17:17:33.219Z,28.60
2018-09-17T17:20:01.488Z,28.60
2018-09-17T17:22:29.790Z,28.50
2018-09-17T17:24:58.053Z,28.40
2018-09-17T17:27:26.306Z,28.20
2018-09-17T17:29:55.342Z,28.10
2018-09-17T17:32:23.616Z,28.10
2018-09-17T17:34:51.885Z,28.00
2018-09-17T17:37:20.163Z,27.90
2018-09-17T17:39:48.768Z,27.80
2018-09-17T17:42:16.702Z,27.70
2018-09-17T17:44:45.395Z,27.50
2018-09-17T17:47:13.663Z,27.30
2018-09-17T17:49:41.944Z,26.80
2018-09-17T17:52:10.245Z,26.50
2018-09-17T17:54:38.636Z,26.30
2018-09-17T17:57:06.773Z,25.80
2018-09-17T17:59:35.017Z,25.60
2018-09-17T18:02:03.298Z,25.50
2018-09-17T18:04:31.650Z,25.10
2018-09-17T18:06:59.862Z,24.90
2018-09-17T18:09:28.229Z,24.80
2018-09-17T18:11:56.404Z,24.60
2018-09-17T18:14:24.681Z,24.50
2018-09-17T18:16:52.947Z,24.10
2018-09-17T18:19:21.218Z,24.00
2018-09-17T18:21:50.297Z,23.90
2018-09-17T18:24:19.366Z,23.80
2018-09-17T18:26:47.639Z,23.80
2018-09-17T18:29:15.911Z,23.60
2018-09-17T18:31:44.182Z,23.50
2018-09-17T18:34:12.431Z,23.40
2018-09-17T18:36:40.793Z,23.30
2018-09-17T18:39:09.771Z,23.30
2018-09-17T18:41:37.979Z,23.20
2018-09-17T18:44:06.263Z,23.30
2018-09-17T18:46:34.555Z,23.20
2018-09-17T18:49:02.843Z,23.00
2018-09-17T18:51:31.088Z,22.70
2018-09-17T18:53:59.385Z,22.70
2018-09-17T18:56:27.662Z,22.70
2018-09-17T18:58:55.949Z,22.50
2018-09-17T19:01:24.197Z,22.50
2018-09-17T19:03:52.691Z,22.50
2018-09-17T19:06:21.012Z,22.20
2018-09-17T19:08:49.300Z,22.20
2018-09-17T19:11:17.497Z,22.40
2018-09-17T19:13:45.771Z,22.40
2018-09-17T19:16:14.034Z,22.40
2018-09-17T19:18:42.295Z,22.10
2018-09-17T19:21:10.710Z,21.90
2018-09-17T19:26:33.853Z,21.80
2018-09-17T19:29:07.777Z,21.00
2018-09-17T19:31:35.993Z,21.30
2018-09-17T19:34:05.032Z,21.50
2018-09-17T19:36:33.299Z,21.50
2018-09-17T19:39:07.144Z,21.50
2018-09-17T19:41:35.403Z,21.60
2018-09-17T19:44:03.659Z,21.70
2018-09-17T19:46:31.926Z,21.80
2018-09-17T19:49:00.179Z,21.80
2018-09-17T19:51:34.890Z,21.60
2018-09-17T19:54:03.935Z,21.50
2018-09-17T19:56:32.209Z,21.40
2018-09-17T19:59:17.135Z,21.30
2018-09-17T20:01:46.179Z,21.00
2018-09-17T20:04:14.442Z,21.00
2018-09-17T20:06:42.715Z,21.00
2018-09-17T20:09:11.022Z,20.80
2018-09-17T20:11:39.304Z,20.70
2018-09-17T20:14:07.826Z,20.60
2018-09-17T20:16:36.954Z,20.50
2018-09-17T20:19:05.243Z,20.50
2018-09-17T20:21:33.506Z,20.60
2018-09-17T20:24:02.578Z,20.90
2018-09-17T20:26:31.612Z,21.00
2018-09-17T20:28:59.875Z,21.00
2018-09-17T20:31:28.119Z,20.90
2018-09-17T20:33:56.379Z,20.80
2018-09-17T20:36:24.633Z,20.70
2018-09-17T20:38:53.676Z,20.50
2018-09-17T20:41:21.918Z,20.50
2018-09-17T20:43:50.194Z,20.30
2018-09-17T20:46:18.464Z,20.30
2018-09-17T20:48:47.566Z,20.40
2018-09-17T20:51:15.762Z,20.30
2018-09-17T20:53:44.026Z,20.30
2018-09-17T20:56:13.091Z,20.30
2018-09-17T20:58:42.160Z,20.40
2018-09-17T21:01:10.498Z,20.30
2018-09-17T21:03:38.702Z,20.30
2018-09-17T21:06:06.948Z,20.10
2018-09-17T21:08:35.202Z,20.10
2018-09-17T21:11:03.464Z,20.00
2018-09-17T21:13:32.551Z,19.90
2018-09-17T21:16:00.913Z,19.90
2018-09-17T21:18:29.101Z,20.00
2018-09-17T21:20:58.131Z,20.10
2018-09-17T21:23:26.402Z,20.10
2018-09-17T21:25:54.650Z,20.10
2018-09-17T21:28:24.152Z,20.00
2018-09-17T21:30:53.284Z,19.90
2018-09-17T21:33:21.472Z,19.90
2018-09-17T21:35:49.729Z,19.80
2018-09-17T21:38:17.984Z,19.90
2018-09-17T21:40:46.295Z,19.80
2018-09-17T21:43:14.584Z,19.70
2018-09-17T21:45:42.771Z,19.80
2018-09-17T21:48:11.062Z,19.70
2018-09-17T21:50:39.293Z,19.70
2018-09-17T21:53:07.608Z,19.60
2018-09-17T21:55:35.857Z,19.60
2018-09-17T21:58:04.109Z,19.50
2018-09-17T22:00:32.385Z,19.50
2018-09-17T22:03:00.632Z,19.20
2018-09-17T22:05:28.888Z,19.20
2018-09-17T22:07:57.904Z,19.20
2018-09-17T22:10:26.167Z,19.20
2018-09-17T22:12:55.185Z,19.20
2018-09-17T22:15:23.434Z,19.20
2018-09-17T22:17:52.650Z,19.40
2018-09-17T22:20:20.887Z,19.30
2018-09-17T22:22:49.142Z,19.30
2018-09-17T22:25:17.413Z,19.10
2018-09-17T22:27:45.683Z,19.00
2018-09-17T22:30:13.946Z,18.90
2018-09-17T22:32:42.214Z,18.70
2018-09-17T22:35:10.515Z,18.70
2018-09-17T22:37:38.745Z,18.70
2018-09-17T22:40:07.012Z,18.80
2018-09-17T22:42:36.029Z,18.70
2018-09-17T22:45:04.547Z,18.70
2018-09-17T22:47:32.790Z,18.70
2018-09-17T22:50:01.055Z,18.70
2018-09-17T22:52:29.343Z,18.70
2018-09-17T22:54:57.554Z,18.80
2018-09-17T22:57:25.819Z,18.90
2018-09-17T22:59:54.853Z,19.00
2018-09-17T23:02:23.881Z,19.00
2018-09-17T23:04:52.147Z,19.00
2018-09-17T23:10:00.307Z,18.40
2018-09-17T23:12:28.560Z,18.60
2018-09-17T23:14:57.120Z,18.80
2018-09-17T23:17:25.361Z,18.90
2018-09-17T23:19:54.403Z,18.80
2018-09-17T23:22:22.669Z,18.80
2018-09-17T23:24:51.037Z,18.80
2018-09-17T23:27:19.289Z,18.70
2018-09-17T23:29:47.554Z,18.50
2018-09-17T23:32:16.587Z,18.50
2018-09-17T23:34:44.831Z,18.50
2018-09-17T23:37:13.859Z,18.50
2018-09-17T23:39:42.108Z,18.50
2018-09-17T23:42:10.362Z,18.20
2018-09-17T23:44:39.702Z,17.90
2018-09-17T23:47:07.958Z,17.80
2018-09-17T23:49:36.207Z,17.80
2018-09-17T23:52:05.243Z,17.80
2018-09-17T23:54:33.506Z,17.80
2018-09-17T23:57:01.751Z,17.80
2018-09-17T23:59:31.286Z,18.00
